Time;durP1;ratioP1;P1;durP2;ratioP2;P2;SDS_P1;SDS_P2;PMS_P1;PMS_P2;Temp;Humidity;BMP_temperature;BMP_pressure;BME280_temperature;BME280_humidity;BME280_pressure;Samples;Min_cycle;Max_cycle;Signal;HPM_P1;HPM_P2
2021/10/12 00:01:33;;;;;;;;;37.75;31.25;;;;;13.02;48.05;98564.34;4815090;28;102391;-82
2021/10/12 00:04:01;;;;;;;;;34.25;30.75;;;;;13.01;48.24;98554.56;4827000;28;104444;-81
2021/10/12 00:06:28;;;;;;;;;31.50;28.50;;;;;13.01;47.44;98562.72;4830185;28;102829;-82
2021/10/12 00:08:57;;;;;;;;;34.25;31.75;;;;;13.02;48.09;98556.22;4754796;28;102300;-82
2021/10/12 00:11:24;;;;;;;;;36.00;30.75;;;;;13.02;47.68;98555.38;4799119;28;105604;-82
2021/10/12 00:13:51;;;;;;;;;34.75;32.00;;;;;13.02;47.25;98556.22;4835810;28;104073;-82
2021/10/12 00:16:18;;;;;;;;;35.00;32.75;;;;;13.02;47.37;98561.63;4828680;28;104609;-82
2021/10/12 00:18:46;;;;;;;;;32.00;30.50;;;;;13.03;47.28;98557.88;4831010;28;102591;-81
2021/10/12 00:21:13;;;;;;;;;31.75;27.50;;;;;13.02;48.16;98558.94;4847591;28;104600;-82
2021/10/12 00:23:40;;;;;;;;;29.50;27.50;;;;;13.03;47.35;98552.44;4834546;28;109208;-82
2021/10/12 00:26:08;;;;;;;;;31.00;28.50;;;;;13.03;47.70;98552.44;4834752;28;102604;-82
2021/10/12 00:28:35;;;;;;;;;32.00;26.75;;;;;13.04;48.42;98545.97;4840032;28;102364;-82
2021/10/12 00:31:02;;;;;;;;;30.25;26.75;;;;;13.02;47.82;98548.06;4825307;28;102506;-82
2021/10/12 00:33:31;;;;;;;;;32.50;27.00;;;;;13.03;48.23;98536.16;4811689;28;104108;-82
2021/10/12 00:35:58;;;;;;;;;28.25;27.25;;;;;13.02;48.47;98539.94;4820601;28;102868;-82
2021/10/12 00:38:25;;;;;;;;;32.25;28.00;;;;;13.03;48.02;98546.19;4825047;28;102601;-82
2021/10/12 00:40:52;;;;;;;;;29.50;28.25;;;;;13.03;47.40;98538.88;4819033;28;102432;-82
2021/10/12 00:43:25;;;;;;;;;38.50;30.75;;;;;13.03;47.79;98547.03;4828263;28;103742;-81
2021/10/12 00:45:57;;;;;;;;;33.00;29.75;;;;;13.03;47.49;98543.47;4826950;28;102385;-82
2021/10/12 00:48:24;;;;;;;;;34.25;24.50;;;;;13.04;47.32;98547.88;4832508;28;102406;-82
2021/10/12 00:50:51;;;;;;;;;32.75;25.50;;;;;13.02;47.76;98548.06;4820946;28;102715;-82
2021/10/12 00:53:18;;;;;;;;;33.00;29.00;;;;;13.03;47.43;98549.75;4829722;28;104282;-82
2021/10/12 00:55:46;;;;;;;;;30.00;24.25;;;;;13.03;48.27;98547.03;4831840;28;102429;-82
2021/10/12 00:58:14;;;;;;;;;29.75;27.50;;;;;13.03;47.31;98547.03;4833953;28;102288;-82
2021/10/12 01:00:41;;;;;;;;;28.25;25.50;;;;;13.04;47.88;98545.16;4826695;28;103393;-82
2021/10/12 01:03:08;;;;;;;;;32.75;28.25;;;;;13.04;47.37;98548.69;4783636;28;104020;-82
2021/10/12 01:05:36;;;;;;;;;29.00;25.25;;;;;13.03;48.03;98536.16;4811889;28;103849;-82
2021/10/12 01:08:04;;;;;;;;;32.00;26.50;;;;;13.03;47.54;98536.16;4825171;28;102513;-82
2021/10/12 01:10:31;;;;;;;;;29.25;22.25;;;;;13.03;47.95;98541.59;4810590;28;102562;-82
2021/10/12 01:12:58;;;;;;;;;25.25;23.25;;;;;13.05;47.39;98534.09;4819742;28;104257;-82
2021/10/12 01:15:25;;;;;;;;;24.25;23.25;;;;;13.04;47.42;98532.41;4808295;28;103470;-82
2021/10/12 01:17:52;;;;;;;;;29.00;25.50;;;;;13.05;47.52;98535.97;4798786;28;103599;-82
2021/10/12 01:20:20;;;;;;;;;23.00;17.25;;;;;13.04;47.36;98535.13;4825121;28;103809;-82
2021/10/12 01:22:47;;;;;;;;;26.00;22.75;;;;;13.05;47.83;98522.38;4801158;28;104063;-82
2021/10/12 01:25:15;;;;;;;;;30.00;25.25;;;;;13.05;47.23;98525.94;4819395;28;102699;-82
2021/10/12 01:27:42;;;;;;;;;29.50;24.00;;;;;13.04;47.26;98520.72;4821095;28;104230;-82
2021/10/12 01:30:10;;;;;;;;;27.00;22.75;;;;;13.05;47.78;98520.50;4821516;28;102591;-82
2021/10/12 01:32:41;;;;;;;;;27.25;22.75;;;;;13.05;47.69;98525.94;4819354;28;103118;-82
2021/10/12 01:35:09;;;;;;;;;23.50;22.75;;;;;13.04;47.90;98531.56;4828138;28;102707;-82
2021/10/12 01:37:36;;;;;;;;;27.75;21.00;;;;;13.04;47.15;98513.41;4827707;28;110611;-82
2021/10/12 01:40:04;;;;;;;;;23.00;20.25;;;;;13.04;47.63;98516.13;4838329;28;102641;-81
2021/10/12 01:42:32;;;;;;;;;24.50;22.00;;;;;13.04;47.21;98507.97;4825425;28;104416;-82
2021/10/12 01:44:59;;;;;;;;;25.25;21.75;;;;;13.04;48.05;98507.16;4829459;28;104182;-82
2021/10/12 01:47:28;;;;;;;;;25.75;22.00;;;;;13.05;47.14;98506.09;4822935;28;105764;-81
2021/10/12 01:49:56;;;;;;;;;24.25;21.00;;;;;13.05;47.02;98506.94;4831017;28;102659;-82
2021/10/12 01:52:23;;;;;;;;;22.50;18.25;;;;;13.05;47.38;98511.53;4837866;28;104086;-82
2021/10/12 01:54:50;;;;;;;;;25.00;21.75;;;;;13.05;47.14;98508.81;4830411;28;103228;-82
2021/10/12 01:57:18;;;;;;;;;25.00;17.75;;;;;13.05;48.08;98517.78;4835278;28;102165;-82
2021/10/12 01:59:46;;;;;;;;;19.50;17.00;;;;;13.06;47.11;98505.84;4826455;28;104556;-82
2021/10/12 02:02:13;;;;;;;;;22.75;21.50;;;;;13.06;47.08;98510.50;4822241;28;104061;-82
2021/10/12 02:04:40;;;;;;;;;23.75;22.75;;;;;13.06;47.90;98500.44;4835738;28;102354;-82
2021/10/12 02:07:07;;;;;;;;;21.75;17.50;;;;;13.05;46.97;98506.94;4841555;28;105059;-82
2021/10/12 02:09:34;;;;;;;;;24.75;18.75;;;;;13.05;47.23;98490.66;4821886;28;103042;-81
2021/10/12 02:12:01;;;;;;;;;23.00;18.75;;;;;13.06;47.21;98494.19;4839852;28;104094;-82
2021/10/12 02:14:28;;;;;;;;;18.75;18.00;;;;;13.06;47.91;98484.16;4817499;28;103373;-82
2021/10/12 02:16:55;;;;;;;;;23.25;20.00;;;;;13.06;47.53;98481.44;4816204;28;102531;-82
2021/10/12 02:19:22;;;;;;;;;22.25;18.75;;;;;13.06;46.85;98488.78;4830807;28;102984;-82
2021/10/12 02:21:49;;;;;;;;;22.00;21.00;;;;;13.06;46.81;98480.63;4844108;28;104137;-82
2021/10/12 02:24:16;;;;;;;;;20.75;17.50;;;;;13.06;47.60;98476.00;4821183;28;103771;-81
2021/10/12 02:26:43;;;;;;;;;19.00;17.00;;;;;13.06;47.50;98476.00;4840029;28;102532;-82
2021/10/12 02:29:11;;;;;;;;;20.50;20.00;;;;;13.05;47.76;98474.38;4840028;28;103280;-82
2021/10/12 02:31:38;;;;;;;;;20.50;17.25;;;;;13.05;47.53;98468.94;4824576;28;104512;-82
2021/10/12 02:34:05;;;;;;;;;18.50;16.75;;;;;13.06;47.73;98465.16;4828143;28;103629;-82
2021/10/12 02:36:32;;;;;;;;;21.00;16.75;;;;;13.06;46.99;98462.44;4834261;28;102837;-82
2021/10/12 02:38:59;;;;;;;;;18.50;17.00;;;;;13.06;47.62;98462.44;4831684;28;102752;-82
2021/10/12 02:41:26;;;;;;;;;16.00;14.50;;;;;13.08;47.34;98467.66;4830438;28;104324;-82
2021/10/12 02:43:53;;;;;;;;;19.50;18.50;;;;;13.06;46.78;98465.16;4838274;28;102613;-82
2021/10/12 02:46:20;;;;;;;;;20.75;17.75;;;;;13.07;47.81;98466.81;4831188;28;102320;-82
2021/10/12 02:48:48;;;;;;;;;17.75;16.50;;;;;13.07;47.72;98463.25;4829923;28;102676;-82
2021/10/12 02:51:15;;;;;;;;;18.75;16.75;;;;;13.07;47.72;98460.56;4827723;28;104242;-82
2021/10/12 02:53:42;;;;;;;;;22.25;16.50;;;;;13.08;47.23;98467.66;4829238;28;102972;-82
2021/10/12 02:56:10;;;;;;;;;18.25;18.25;;;;;13.06;46.84;98459.72;4821997;28;103169;-82
2021/10/12 02:58:37;;;;;;;;;17.25;15.75;;;;;13.08;46.88;98462.22;4827687;28;102788;-82
2021/10/12 03:01:04;;;;;;;;;18.25;15.75;;;;;13.07;47.12;98461.38;4830195;28;104973;-82
2021/10/12 03:03:31;;;;;;;;;19.00;16.00;;;;;13.07;46.90;98465.97;4834173;28;102588;-82
2021/10/12 03:05:58;;;;;;;;;18.75;16.75;;;;;13.07;47.48;98461.38;4833036;28;105368;-82
2021/10/12 03:08:26;;;;;;;;;18.25;18.00;;;;;13.07;46.68;98461.38;4837180;28;102552;-82
2021/10/12 03:10:53;;;;;;;;;5.50;4.50;;;;;13.08;46.74;98456.78;4841603;28;104085;-82
2021/10/12 03:13:20;;;;;;;;;17.00;14.50;;;;;13.07;47.46;98453.25;4837156;28;102620;-82
2021/10/12 03:15:47;;;;;;;;;18.50;16.00;;;;;13.08;47.52;98454.91;4829528;28;102380;-82
2021/10/12 03:18:14;;;;;;;;;14.50;13.50;;;;;13.07;46.92;98449.69;4832900;28;102765;-82
2021/10/12 03:20:41;;;;;;;;;19.25;16.50;;;;;13.08;47.66;98452.19;4839721;28;104136;-82
2021/10/12 03:23:08;;;;;;;;;17.50;15.00;;;;;13.06;47.17;98438.00;4827075;28;103237;-82
2021/10/12 03:25:36;;;;;;;;;15.25;15.00;;;;;13.07;46.73;98442.38;4829418;28;103439;-82
2021/10/12 03:28:04;;;;;;;;;19.50;15.25;;;;;13.07;46.84;98442.38;4832570;28;103426;-82
2021/10/12 03:30:31;;;;;;;;;15.00;12.75;;;;;13.07;46.65;98434.25;4812070;28;104049;-82
2021/10/12 03:32:58;;;;;;;;;20.00;17.00;;;;;13.08;47.20;98440.50;4832802;28;102185;-82
2021/10/12 03:35:33;;;;;;;;;15.25;14.25;;;;;13.08;47.10;98430.47;4835430;28;102327;-82
2021/10/12 03:38:01;;;;;;;;;16.75;14.00;;;;;13.08;46.78;98425.06;4832740;28;103348;-82
2021/10/12 03:40:28;;;;;;;;;17.75;15.00;;;;;13.08;46.87;98424.22;4829653;28;104012;-82
2021/10/12 03:42:55;;;;;;;;;16.50;14.50;;;;;13.09;46.63;98415.03;4844075;28;103427;-82
2021/10/12 03:45:22;;;;;;;;;14.25;13.50;;;;;13.08;46.87;98406.06;4810965;28;102989;-82
2021/10/12 03:47:49;;;;;;;;;11.25;10.50;;;;;13.09;47.54;98409.59;4830041;28;102800;-82
2021/10/12 03:50:16;;;;;;;;;13.50;12.00;;;;;13.08;46.55;98408.75;4815564;28;104274;-82
2021/10/12 03:52:43;;;;;;;;;13.50;13.00;;;;;13.08;46.94;98408.75;4834432;28;102142;-82
2021/10/12 03:55:10;;;;;;;;;16.75;15.75;;;;;13.09;46.44;98404.16;4831367;28;105173;-81
2021/10/12 03:57:38;;;;;;;;;14.00;13.00;;;;;13.08;46.44;98405.22;4842917;28;102955;-82
2021/10/12 04:00:06;;;;;;;;;17.00;12.25;;;;;13.09;46.76;98405.00;4822639;28;104945;-82
2021/10/12 04:02:33;;;;;;;;;17.00;16.00;;;;;13.09;46.69;98398.75;4828320;28;103069;-82
2021/10/12 04:05:00;;;;;;;;;14.00;13.50;;;;;13.09;47.43;98393.31;4814847;28;102765;-82
2021/10/12 04:07:28;;;;;;;;;15.25;13.75;;;;;13.08;46.48;98395.19;4789301;28;103002;-82
2021/10/12 04:09:55;;;;;;;;;12.00;11.00;;;;;13.09;46.46;98394.16;4818475;28;104071;-82
2021/10/12 04:12:23;;;;;;;;;15.00;12.25;;;;;13.10;46.52;98397.69;4822767;28;102533;-82
2021/10/12 04:14:50;;;;;;;;;13.25;12.25;;;;;13.10;47.01;98400.41;4818300;28;102535;-82
2021/10/12 04:17:17;;;;;;;;;13.00;13.00;;;;;13.09;46.90;98394.16;4825746;28;104466;-82
2021/10/12 04:19:44;;;;;;;;;12.25;11.50;;;;;13.08;47.23;98394.34;4824834;28;104330;-82
2021/10/12 04:22:11;;;;;;;;;16.00;12.75;;;;;13.10;46.58;98390.38;4827242;28;102623;-82
2021/10/12 04:24:39;;;;;;;;;14.75;11.75;;;;;13.10;47.50;98390.38;4823358;28;102123;-82
2021/10/12 04:27:06;;;;;;;;;13.00;11.50;;;;;13.10;47.36;98382.25;4831280;28;103307;-82
2021/10/12 04:29:33;;;;;;;;;11.50;10.75;;;;;13.10;47.41;98379.53;4819427;28;104972;-83
2021/10/12 04:32:00;;;;;;;;;13.75;13.00;;;;;13.10;47.56;98374.09;4836845;28;102716;-82
2021/10/12 04:34:28;;;;;;;;;11.75;11.50;;;;;13.11;47.42;98380.38;4838074;28;102704;-82
2021/10/12 04:36:56;;;;;;;;;14.25;12.00;;;;;13.11;46.34;98386.63;4824063;28;103013;-82
2021/10/12 04:39:23;;;;;;;;;11.75;11.00;;;;;13.11;47.10;98383.91;4819798;28;104333;-82
2021/10/12 04:41:50;;;;;;;;;11.75;11.50;;;;;13.10;46.97;98376.81;4835286;28;103503;-82
2021/10/12 04:44:17;;;;;;;;;13.75;10.50;;;;;13.10;46.88;98368.66;4820120;28;103646;-84
2021/10/12 04:46:43;;;;;;;;;13.75;13.00;;;;;13.12;46.82;98380.16;4811799;28;102685;-82
2021/10/12 04:49:12;;;;;;;;;12.25;11.50;;;;;13.14;47.79;98386.19;4812228;28;104176;-82
2021/10/12 04:51:39;;;;;;;;;14.00;9.75;;;;;13.13;48.12;98370.97;4828794;28;106861;-82
2021/10/12 04:54:07;;;;;;;;;10.75;9.25;;;;;13.13;47.84;98372.84;4802391;28;102208;-82
2021/10/12 04:56:34;;;;;;;;;12.00;11.00;;;;;13.13;47.22;98370.13;4808926;28;102252;-82
2021/10/12 04:59:01;;;;;;;;;12.75;12.25;;;;;13.14;47.97;98369.09;4809220;28;104043;-82
2021/10/12 05:01:28;;;;;;;;;13.00;11.00;;;;;13.13;47.95;98362.81;4830665;28;102722;-82
2021/10/12 05:03:55;;;;;;;;;11.25;11.25;;;;;13.15;47.40;98370.75;4813815;28;104768;-81
2021/10/12 05:06:22;;;;;;;;;12.75;11.25;;;;;13.14;47.11;98369.09;4814985;28;102691;-82
2021/10/12 05:08:49;;;;;;;;;13.00;10.50;;;;;13.14;47.64;98363.66;4809514;28;104058;-81
2021/10/12 05:11:17;;;;;;;;;13.25;12.00;;;;;13.14;47.27;98369.91;4818092;28;102547;-82
2021/10/12 05:13:44;;;;;;;;;11.50;11.00;;;;;13.14;47.31;98356.34;4812747;28;103138;-82
2021/10/12 05:16:13;;;;;;;;;14.25;11.00;;;;;13.14;47.23;98350.06;4834980;28;102266;-82
2021/10/12 05:18:43;;;;;;;;;12.75;11.75;;;;;13.14;47.49;98359.06;4819343;28;104236;-82
2021/10/12 05:21:10;;;;;;;;;10.00;7.75;;;;;13.14;47.81;98352.78;4824059;28;102437;-82
2021/10/12 05:23:37;;;;;;;;;10.75;9.25;;;;;13.15;46.63;98360.69;4807065;28;103400;-81
2021/10/12 05:26:05;;;;;;;;;11.75;11.75;;;;;13.15;47.32;98368.03;4824564;28;102612;-81
2021/10/12 05:28:34;;;;;;;;;13.75;10.75;;;;;13.16;47.41;98373.22;4820737;28;104080;-82
2021/10/12 05:31:48;;;;;;;;;10.00;8.25;;;;;13.15;47.31;98368.84;4824702;28;102549;-81
2021/10/12 05:34:16;;;;;;;;;12.75;11.75;;;;;13.15;47.53;98370.75;4808498;28;103186;-82
2021/10/12 05:36:43;;;;;;;;;14.25;12.50;;;;;13.15;47.47;98370.75;4832922;28;105222;-81
2021/10/12 05:39:10;;;;;;;;;12.25;10.25;;;;;13.15;47.64;98360.69;4808824;28;104143;-81
2021/10/12 05:41:37;;;;;;;;;12.50;10.00;;;;;13.14;46.75;98367.19;4818166;28;102363;-82
2021/10/12 05:44:04;;;;;;;;;10.25;8.50;;;;;13.14;46.76;98372.63;4830682;28;102177;-82
2021/10/12 05:46:31;;;;;;;;;12.75;8.25;;;;;13.14;47.36;98378.06;4806658;28;102518;-82
2021/10/12 05:48:59;;;;;;;;;10.75;10.50;;;;;13.15;46.62;98374.25;4813836;28;104166;-82
2021/10/12 05:51:27;;;;;;;;;8.75;8.50;;;;;13.16;46.82;98375.09;4810549;28;104349;-81
2021/10/12 05:53:56;;;;;;;;;11.75;11.00;;;;;13.16;47.22;98372.38;4830537;28;102650;-82
2021/10/12 05:56:28;;;;;;;;;10.75;10.00;;;;;13.15;46.89;98368.84;4820082;28;102292;-82
2021/10/12 05:58:55;;;;;;;;;12.25;10.75;;;;;13.13;46.77;98364.69;4821852;28;104084;-82
2021/10/12 06:01:23;;;;;;;;;13.25;11.25;;;;;13.15;47.47;98371.56;4824214;28;102133;-81
2021/10/12 06:03:50;;;;;;;;;12.25;9.25;;;;;13.16;47.41;98362.34;4830223;28;107021;-82
2021/10/12 06:06:17;;;;;;;;;7.50;7.50;;;;;13.16;46.88;98370.50;4832994;28;102693;-82
2021/10/12 06:08:44;;;;;;;;;11.50;9.75;;;;;13.16;46.62;98362.34;4823718;28;104216;-82
2021/10/12 06:11:11;;;;;;;;;11.00;9.25;;;;;13.16;46.87;98369.66;4834259;28;102701;-82
2021/10/12 06:13:40;;;;;;;;;11.25;8.00;;;;;13.17;47.19;98369.47;4835344;28;103685;-81
2021/10/12 06:16:07;;;;;;;;;11.00;9.25;;;;;13.16;46.95;98370.50;4838491;28;102164;-82
2021/10/12 06:18:34;;;;;;;;;14.00;10.50;;;;;13.16;46.83;98366.97;4839193;28;104338;-82
2021/10/12 06:21:01;;;;;;;;;10.50;8.50;;;;;13.15;47.24;98366.13;4841944;28;102462;-82
2021/10/12 06:23:28;;;;;;;;;8.25;8.25;;;;;13.17;47.51;98365.91;4827789;28;102110;-82
2021/10/12 06:25:55;;;;;;;;;10.50;8.00;;;;;13.16;47.31;98370.50;4831870;28;102271;-82
2021/10/12 06:28:23;;;;;;;;;11.25;8.50;;;;;13.16;46.78;98373.22;4844497;28;103288;-82
2021/10/12 06:30:50;;;;;;;;;11.00;8.00;;;;;13.17;47.49;98369.47;4833285;28;102828;-81
2021/10/12 06:33:17;;;;;;;;;14.00;10.00;;;;;13.16;47.01;98377.81;4824304;28;102993;-81
2021/10/12 06:35:44;;;;;;;;;11.50;9.50;;;;;13.16;46.53;98372.38;4840098;28;102417;-82
2021/10/12 06:38:11;;;;;;;;;8.25;8.25;;;;;13.16;47.04;98366.97;4835871;28;104114;-82
2021/10/12 06:40:39;;;;;;;;;7.00;7.00;;;;;13.17;46.48;98372.16;4830606;28;102615;-82
2021/10/12 06:43:06;;;;;;;;;9.75;8.50;;;;;13.18;47.47;98373.84;4849057;28;102539;-81
2021/10/12 06:45:33;;;;;;;;;9.50;7.25;;;;;13.17;46.87;98374.88;4837621;28;102257;-82
2021/10/12 06:48:00;;;;;;;;;8.50;8.50;;;;;13.17;47.62;98372.16;4817460;28;104423;-81
2021/10/12 06:50:27;;;;;;;;;9.00;9.00;;;;;13.19;47.55;98371.97;4837386;28;102281;-82
2021/10/12 06:52:54;;;;;;;;;10.50;7.25;;;;;13.18;46.93;98365.69;4835922;28;102523;-82
2021/10/12 06:55:21;;;;;;;;;8.00;7.50;;;;;13.18;47.51;98373.84;4829485;28;102620;-81
2021/10/12 06:57:49;;;;;;;;;8.50;8.00;;;;;13.19;47.67;98374.69;4837879;28;103916;-82
2021/10/12 07:00:16;;;;;;;;;8.00;8.00;;;;;13.19;46.57;98371.97;4818765;28;107649;-82
2021/10/12 07:02:44;;;;;;;;;10.50;9.25;;;;;13.20;47.33;98379.84;4830532;28;102585;-82
2021/10/12 07:05:11;;;;;;;;;10.00;7.50;;;;;13.20;47.42;98374.44;4837260;28;102676;-82
2021/10/12 07:07:38;;;;;;;;;11.00;9.75;;;;;13.20;47.06;98385.28;4831141;28;104190;-82
2021/10/12 07:10:06;;;;;;;;;7.75;6.00;;;;;13.21;46.60;98375.25;4832194;28;102326;-81
2021/10/12 07:12:33;;;;;;;;;9.25;8.75;;;;;13.21;46.65;98384.25;4835205;28;103840;-82
2021/10/12 07:15:00;;;;;;;;;10.00;7.00;;;;;13.19;47.40;98377.38;4827260;28;102534;-82
2021/10/12 07:17:27;;;;;;;;;9.25;8.00;;;;;13.21;47.36;98386.97;4824209;28;104109;-82
2021/10/12 07:19:54;;;;;;;;;9.75;8.75;;;;;13.21;46.58;98381.53;4825308;28;102538;-81
2021/10/12 07:22:23;;;;;;;;;7.00;6.00;;;;;13.20;47.56;98382.56;4831263;28;103153;-82
2021/10/12 07:24:51;;;;;;;;;10.00;9.75;;;;;13.20;47.08;98379.84;4820000;28;102607;-82
2021/10/12 07:27:18;;;;;;;;;8.50;7.00;;;;;13.21;46.50;98376.09;4809786;28;104650;-82
2021/10/12 07:29:46;;;;;;;;;6.50;6.50;;;;;13.23;47.39;98381.31;4833907;28;102307;-82
2021/10/12 07:32:14;;;;;;;;;10.50;8.00;;;;;13.23;46.99;98378.59;4830374;28;111194;-82
2021/10/12 07:34:41;;;;;;;;;8.00;7.75;;;;;13.22;46.58;98366.91;4831544;28;102458;-82
2021/10/12 07:37:08;;;;;;;;;6.50;6.50;;;;;13.24;47.48;98369.38;4832492;28;104287;-82
2021/10/12 07:39:35;;;;;;;;;10.75;7.50;;;;;13.24;47.32;98370.22;4834274;28;103196;-82
2021/10/12 07:42:05;;;;;;;;;8.25;8.00;;;;;13.25;47.14;98371.03;4834457;28;102330;-81
2021/10/12 07:44:32;;;;;;;;;7.75;7.00;;;;;13.24;46.61;98370.22;4834094;28;102483;-82
2021/10/12 07:46:59;;;;;;;;;8.00;7.00;;;;;13.25;46.67;98374.59;4822465;28;104090;-82
2021/10/12 07:49:26;;;;;;;;;13.75;8.00;;;;;13.26;46.77;98370.00;4830620;28;104543;-82
2021/10/12 07:51:53;;;;;;;;;7.25;7.25;;;;;13.25;46.50;98377.31;4839576;28;104248;-81
2021/10/12 07:54:38;;;;;;;;;7.00;6.00;;;;;13.26;46.47;98370.00;4833680;28;102615;-82
2021/10/12 07:57:09;;;;;;;;;9.25;7.00;;;;;13.27;47.58;98371.66;4825616;28;109056;-81
2021/10/12 07:59:37;;;;;;;;;6.25;5.00;;;;;13.27;47.53;98366.25;4838890;28;102242;-81
2021/10/12 08:02:04;;;;;;;;;12.25;8.00;;;;;13.26;47.44;98373.56;4834562;28;103131;-81
2021/10/12 08:04:31;;;;;;;;;6.50;6.25;;;;;13.27;47.12;98369.78;4831279;28;103075;-82
2021/10/12 08:06:58;;;;;;;;;9.75;7.25;;;;;13.26;47.44;98373.56;4793002;28;103840;-81
2021/10/12 08:09:27;;;;;;;;;9.25;7.00;;;;;13.27;47.08;98372.50;4795955;29;102438;-82
2021/10/12 08:11:56;;;;;;;;;6.75;5.75;;;;;13.27;46.38;98369.78;4794450;29;104944;-82
2021/10/12 08:14:25;;;;;;;;;7.25;6.75;;;;;13.27;47.49;98364.34;4796005;29;102617;-81
2021/10/12 08:16:52;;;;;;;;;6.00;5.50;;;;;13.29;46.43;98361.41;4796766;29;104075;-82
2021/10/12 08:19:19;;;;;;;;;8.50;7.00;;;;;13.29;47.44;98362.22;4790983;29;103662;-82
2021/10/12 08:21:46;;;;;;;;;6.00;6.00;;;;;13.30;47.47;98368.50;4792692;29;102872;-82
2021/10/12 08:24:17;;;;;;;;;4.75;4.75;;;;;13.31;46.66;98362.00;4794606;29;103083;-82
2021/10/12 08:26:44;;;;;;;;;10.25;7.25;;;;;13.31;47.54;98365.56;4790967;29;105235;-82
2021/10/12 08:29:11;;;;;;;;;6.00;6.00;;;;;13.30;46.87;98358.47;4794687;29;102174;-81
2021/10/12 08:31:38;;;;;;;;;7.00;5.75;;;;;13.32;47.50;98364.53;4803635;29;102690;-81
2021/10/12 08:34:05;;;;;;;;;7.00;6.25;;;;;13.32;46.54;98360.97;4791356;29;102600;-81
2021/10/12 08:36:38;;;;;;;;;7.00;6.75;;;;;13.33;47.42;98358.00;4788496;29;109002;-81
2021/10/12 08:39:06;;;;;;;;;8.00;6.25;;;;;13.32;46.95;98356.38;4785559;29;102435;-81
2021/10/12 08:41:44;;;;;;;;;8.25;7.50;;;;;13.33;47.27;98357.19;4789718;29;102445;-82
2021/10/12 08:44:11;;;;;;;;;6.75;6.25;;;;;13.33;47.31;98355.28;4764237;29;105509;-81
2021/10/12 08:46:38;;;;;;;;;5.00;5.00;;;;;13.34;46.59;98354.25;4787731;29;104031;-81
2021/10/12 08:49:05;;;;;;;;;6.75;5.50;;;;;13.34;46.63;98356.97;4775663;29;103430;-82
2021/10/12 08:51:32;;;;;;;;;5.00;5.00;;;;;13.33;46.66;98344.44;4789061;29;103198;-82
2021/10/12 08:53:59;;;;;;;;;8.00;6.50;;;;;13.34;47.36;98347.97;4760907;29;102373;-82
2021/10/12 08:56:26;;;;;;;;;7.25;5.50;;;;;13.34;46.64;98337.94;4795247;29;104804;-82
2021/10/12 08:58:54;;;;;;;;;8.00;6.00;;;;;13.34;46.45;98346.09;4785193;28;105305;-82
2021/10/12 09:01:21;;;;;;;;;7.00;6.00;;;;;13.33;47.07;98340.88;4801683;29;102404;-82
2021/10/12 09:03:52;;;;;;;;;5.75;5.75;;;;;13.36;46.31;98345.88;4781688;29;103499;-82
2021/10/12 09:06:29;;;;;;;;;5.75;5.75;;;;;13.36;47.25;98351.31;4805641;28;104623;-82
2021/10/12 09:09:15;;;;;;;;;5.75;5.00;;;;;13.37;46.66;98342.91;4820376;28;102460;-82
2021/10/12 09:11:43;;;;;;;;;5.50;5.00;;;;;13.38;46.93;98349.19;4814393;28;102474;-82
2021/10/12 09:14:11;;;;;;;;;8.00;6.75;;;;;13.38;47.00;98343.75;4832165;28;102431;-82
2021/10/12 09:16:43;;;;;;;;;5.75;5.00;;;;;13.38;47.47;98349.19;4831647;28;109056;-82
2021/10/12 09:19:11;;;;;;;;;7.25;6.75;;;;;13.38;46.91;98339.16;4837389;28;102410;-82
2021/10/12 09:21:40;;;;;;;;;6.50;5.25;;;;;13.39;46.92;98345.41;4827755;28;104133;-82
2021/10/12 09:24:14;;;;;;;;;6.00;5.00;;;;;13.39;46.92;98335.41;4832592;28;107069;-82
2021/10/12 09:27:03;;;;;;;;;6.50;6.00;;;;;13.40;46.60;98331.63;4837124;28;108982;-82
2021/10/12 09:29:36;;;;;;;;;7.50;5.50;;;;;13.40;46.81;98334.34;4832163;28;102403;-82
2021/10/12 09:32:05;;;;;;;;;6.25;5.00;;;;;13.42;47.29;98336.00;4832313;28;102236;-82
2021/10/12 09:34:32;;;;;;;;;5.75;4.75;;;;;13.42;46.65;98327.88;4839984;28;102039;-82
2021/10/12 09:36:59;;;;;;;;;5.75;5.00;;;;;13.42;47.03;98317.00;4837598;28;104080;-81
2021/10/12 09:39:32;;;;;;;;;5.00;5.00;;;;;13.43;46.37;98310.50;4833469;28;104037;-82
2021/10/12 09:42:04;;;;;;;;;5.00;4.00;;;;;13.43;46.35;98310.50;4818330;28;104333;-82
2021/10/12 09:44:32;;;;;;;;;6.00;6.00;;;;;13.44;46.84;98309.44;4824278;28;102442;-82
2021/10/12 09:47:15;;;;;;;;;4.75;4.50;;;;;13.43;46.35;98310.50;4825536;28;102976;-81
2021/10/12 09:49:43;;;;;;;;;4.75;4.00;;;;;13.44;47.51;98306.72;4828481;28;102182;-82
2021/10/12 09:52:15;;;;;;;;;5.25;4.00;;;;;13.46;46.98;98307.34;4835010;28;102604;-81
2021/10/12 09:54:52;;;;;;;;;6.25;5.00;;;;;13.45;46.91;98295.66;4831289;28;102448;-81
2021/10/12 09:57:20;;;;;;;;;8.25;5.50;;;;;13.47;47.44;98292.69;4828009;28;109027;-82
2021/10/12 09:59:47;;;;;;;;;4.50;3.50;;;;;13.47;46.37;98292.69;4830527;28;103704;-82
2021/10/12 10:02:19;;;;;;;;;5.00;5.00;;;;;13.47;46.43;98290.81;4833053;28;103848;-82
2021/10/12 10:04:47;;;;;;;;;8.00;6.00;;;;;13.48;46.36;98291.63;4829086;28;102698;-82
2021/10/12 10:07:25;;;;;;;;;5.50;5.00;;;;;13.48;46.82;98283.47;4830620;28;104079;-82
2021/10/12 10:09:54;;;;;;;;;5.25;4.50;;;;;13.49;46.50;98274.28;4819509;28;102420;-81
2021/10/12 10:12:21;;;;;;;;;4.50;4.50;;;;;13.48;46.98;98283.47;4831919;28;103363;-82
2021/10/12 10:14:48;;;;;;;;;4.00;4.00;;;;;13.49;47.29;98280.56;4819607;28;102593;-81
2021/10/12 10:17:15;;;;;;;;;4.00;4.00;;;;;13.50;46.67;98284.94;4835716;28;104073;-82
2021/10/12 10:19:44;;;;;;;;;4.25;3.75;;;;;13.49;47.06;98275.13;4835974;28;102525;-81
2021/10/12 10:22:37;;;;;;;;;4.00;4.00;;;;;13.50;46.21;98273.22;4810749;28;102332;-81
2021/10/12 10:25:23;;;;;;;;;4.50;4.50;;;;;13.51;46.30;98264.03;4830934;28;102641;-82
2021/10/12 10:27:50;;;;;;;;;3.75;3.75;;;;;13.51;46.66;98262.13;4829783;28;108963;-82
2021/10/12 10:30:23;;;;;;;;;6.00;5.75;;;;;13.51;47.34;98270.28;4825080;28;103150;-82
2021/10/12 10:32:55;;;;;;;;;3.50;3.50;;;;;13.51;46.17;98266.75;4828723;28;102447;-82
2021/10/12 10:35:36;;;;;;;;;3.50;3.25;;;;;13.52;46.44;98263.78;4836213;28;103266;-82
2021/10/12 10:38:21;;;;;;;;;3.75;3.75;;;;;13.52;47.24;98252.09;4822226;28;103996;-81
2021/10/12 10:40:52;;;;;;;;;4.00;3.50;;;;;13.53;46.71;98254.59;4828201;28;103601;-82
2021/10/12 10:43:19;;;;;;;;;6.00;5.00;;;;;13.53;46.36;98249.16;4811648;28;102607;-82
2021/10/12 10:45:47;;;;;;;;;6.75;4.00;;;;;13.53;47.01;98254.59;4827889;28;109609;-82
2021/10/12 10:48:16;;;;;;;;;3.75;3.00;;;;;13.55;46.89;98254.38;4822517;28;108992;-81
2021/10/12 10:50:52;;;;;;;;;3.00;3.00;;;;;13.55;46.33;98246.22;4831020;28;103550;-82
2021/10/12 10:53:40;;;;;;;;;4.00;3.00;;;;;13.55;47.07;98246.22;4827755;28;102684;-82
2021/10/12 10:56:07;;;;;;;;;2.75;2.75;;;;;13.55;46.26;98247.06;4824573;28;104775;-82
2021/10/12 10:58:34;;;;;;;;;4.50;3.00;;;;;13.56;46.83;98242.41;4825836;28;104073;-82
2021/10/12 11:01:01;;;;;;;;;4.00;4.00;;;;;13.55;46.21;98235.34;4832098;28;103778;-82
2021/10/12 11:03:28;;;;;;;;;5.25;3.25;;;;;13.57;46.21;98236.78;4823303;28;102675;-82
2021/10/12 11:06:18;;;;;;;;;5.50;4.25;;;;;13.56;46.10;98212.53;4827002;28;102575;-82
2021/10/12 11:08:59;;;;;;;;;4.50;3.00;;;;;13.57;47.06;98216.91;4820481;28;108957;-81
2021/10/12 11:11:34;;;;;;;;;3.25;3.25;;;;;13.55;46.58;98202.75;4827119;28;103767;-82
2021/10/12 11:14:03;;;;;;;;;5.25;5.00;;;;;13.57;47.21;98217.75;4822163;28;102530;-81
2021/10/12 11:16:36;;;;;;;;;3.00;3.00;;;;;13.59;46.58;98214.81;4821612;28;103529;-82
2021/10/12 11:24:25;;;;;;;;;4.50;4.50;;;;;13.60;46.45;98197.47;4852745;23;103780;-85
2021/10/12 11:27:05;;;;;;;;;2.00;2.00;;;;;13.61;46.54;98199.09;4813798;28;102650;-85
2021/10/12 11:29:33;;;;;;;;;3.50;2.50;;;;;13.61;46.19;98196.38;4826119;28;103971;-85